Time;durP1;ratioP1;P1;durP2;ratioP2;P2;SDS_P1;SDS_P2;PMS_P1;PMS_P2;Temp;Humidity;BMP_temperature;BMP_pressure;BME280_temperature;BME280_humidity;BME280_pressure;Samples;Min_cycle;Max_cycle;Signal;HPM_P1;HPM_P2
2022/06/09 00:01:19;;;;;;;1.87;1.67;;;;;;;18.24;92.07;100161.88;5054276;28;20445;-69
2022/06/09 00:03:49;;;;;;;2.17;1.77;;;;;;;18.29;92.08;100169.78;5054031;28;20931;-69
2022/06/09 00:06:17;;;;;;;3.53;2.17;;;;;;;18.33;90.87;100170.66;5054100;28;20509;-71
2022/06/09 00:08:48;;;;;;;2.00;1.70;;;;;;;18.37;88.96;100176.19;5053777;28;20456;-69
2022/06/09 00:11:18;;;;;;;1.90;1.73;;;;;;;18.34;87.42;100172.22;5054193;28;20434;-69
2022/06/09 00:13:45;;;;;;;3.27;2.20;;;;;;;18.34;87.23;100176.91;5053983;28;20496;-69
2022/06/09 00:16:13;;;;;;;2.97;2.00;;;;;;;18.36;87.75;100188.31;5054024;28;20470;-70
2022/06/09 00:18:40;;;;;;;2.40;1.30;;;;;;;18.44;88.87;100173.56;5053624;28;20928;-69
2022/06/09 00:21:07;;;;;;;2.27;1.77;;;;;;;18.50;89.74;100176.81;5053922;28;20521;-69
2022/06/09 00:23:35;;;;;;;2.00;1.80;;;;;;;18.53;90.33;100176.09;5053332;28;20482;-70
2022/06/09 00:26:02;;;;;;;2.13;1.50;;;;;;;18.56;90.06;100178.09;5053903;28;20445;-71
2022/06/09 00:28:29;;;;;;;2.93;1.73;;;;;;;18.60;90.15;100174.25;5053926;28;20893;-69
2022/06/09 00:30:56;;;;;;;2.17;1.40;;;;;;;18.60;90.20;100178.97;5053942;28;20480;-71
2022/06/09 00:33:22;;;;;;;1.60;1.50;;;;;;;18.62;90.26;100182.13;5053805;28;20450;-70
2022/06/09 00:35:49;;;;;;;1.67;1.30;;;;;;;18.62;90.53;100182.91;5053746;28;20474;-70
2022/06/09 00:38:16;;;;;;;2.63;2.27;;;;;;;18.67;90.73;100184.56;5053680;28;20443;-70
2022/06/09 00:40:44;;;;;;;2.70;1.87;;;;;;;18.70;90.04;100177.59;5053573;28;20462;-71
2022/06/09 00:43:11;;;;;;;2.17;1.70;;;;;;;18.70;90.22;100180.34;5053546;28;20448;-71
2022/06/09 00:45:39;;;;;;;2.13;1.40;;;;;;;18.72;89.61;100169.78;5053233;28;20445;-70
2022/06/09 00:48:20;;;;;;;1.70;1.53;;;;;;;18.72;88.34;100176.03;5053478;28;20529;-70
2022/06/09 00:50:51;;;;;;;1.80;1.47;;;;;;;18.75;87.64;100185.50;5053176;28;20886;-70
2022/06/09 00:53:24;;;;;;;2.70;2.10;;;;;;;18.76;86.42;100181.59;5053502;28;20423;-70
2022/06/09 00:55:53;;;;;;;2.37;1.70;;;;;;;18.79;85.69;100175.38;5053349;28;20430;-69
2022/06/09 00:58:24;;;;;;;2.73;1.37;;;;;;;18.80;85.51;100182.47;5053287;28;20446;-70
2022/06/09 01:00:52;;;;;;;2.00;1.37;;;;;;;18.79;84.51;100180.88;5053334;28;20463;-68
2022/06/09 01:03:24;;;;;;;2.20;1.53;;;;;;;18.78;85.62;100188.31;5053208;28;20435;-70
2022/06/09 01:05:54;;;;;;;2.60;1.67;;;;;;;18.77;86.44;100197.72;5053277;28;20473;-70
2022/06/09 01:08:21;;;;;;;2.90;1.70;;;;;;;18.75;85.71;100201.97;5053131;28;20541;-69
2022/06/09 01:10:47;;;;;;;2.67;1.63;;;;;;;18.77;84.06;100205.94;5052812;28;20494;-70
2022/06/09 01:13:15;;;;;;;4.77;1.37;;;;;;;18.72;83.25;100200.75;5053006;28;20446;-69
2022/06/09 01:15:51;;;;;;;1.50;1.40;;;;;;;18.75;82.74;100196.50;5052884;28;20488;-70
2022/06/09 01:18:29;;;;;;;1.97;1.27;;;;;;;18.73;82.84;100202.34;5053154;28;20430;-70
2022/06/09 01:21:03;;;;;;;2.37;1.40;;;;;;;18.75;82.57;100199.22;5052779;28;21058;-68
2022/06/09 01:24:13;;;;;;;1.80;1.37;;;;;;;18.74;82.83;100201.19;5052797;28;20938;-69
2022/06/09 01:27:10;;;;;;;2.40;1.70;;;;;;;18.74;83.21;100195.69;5053059;28;20529;-70
2022/06/09 01:29:43;;;;;;;2.77;1.60;;;;;;;18.76;83.07;100198.84;5052718;28;20465;-69
2022/06/09 01:32:18;;;;;;;1.80;1.50;;;;;;;18.77;82.89;100202.38;5052654;28;20521;-70
2022/06/09 01:34:56;;;;;;;2.67;1.60;;;;;;;18.77;82.88;100203.22;5052884;28;20975;-69
2022/06/09 01:37:27;;;;;;;2.23;1.13;;;;;;;18.77;82.70;100203.22;5057108;28;20426;-69
2022/06/09 01:39:56;;;;;;;2.00;1.77;;;;;;;18.80;82.17;100205.19;5056928;28;20498;-69
2022/06/09 01:42:27;;;;;;;2.63;1.77;;;;;;;18.78;81.93;100199.31;5056543;28;20525;-69
2022/06/09 01:44:57;;;;;;;1.53;1.30;;;;;;;18.61;82.24;100197.00;5056960;28;20476;-69
2022/06/09 01:47:34;;;;;;;1.63;1.03;;;;;;;18.62;82.82;100193.09;5056450;28;20947;-69
2022/06/09 01:50:03;;;;;;;6.07;1.20;;;;;;;18.65;83.10;100193.16;5056633;28;20561;-70
2022/06/09 01:52:32;;;;;;;1.80;1.50;;;;;;;18.61;82.86;100191.50;5056645;28;20545;-68
2022/06/09 01:55:02;;;;;;;2.17;1.63;;;;;;;18.56;82.53;100192.59;5056606;28;20484;-70
2022/06/09 01:57:34;;;;;;;3.57;1.60;;;;;;;18.55;82.70;100195.69;5056696;28;20500;-69
2022/06/09 02:00:06;;;;;;;2.13;1.60;;;;;;;18.53;82.95;100203.50;5086674;22;20507;-72
2022/06/09 02:02:37;;;;;;;1.77;1.27;;;;;;;18.51;83.03;100194.88;5076347;28;20508;-73
2022/06/09 02:05:10;;;;;;;2.67;1.30;;;;;;;18.48;82.76;100198.34;5076127;28;20970;-73
2022/06/09 02:07:37;;;;;;;1.60;1.30;;;;;;;18.46;83.34;100195.97;5076451;28;20517;-73
2022/06/09 02:10:15;;;;;;;3.10;1.93;;;;;;;18.46;83.20;100195.16;5075945;28;20839;-73
2022/06/09 02:12:42;;;;;;;1.60;1.20;;;;;;;18.44;83.21;100194.72;5076263;28;20414;-73
2022/06/09 02:15:11;;;;;;;1.63;1.40;;;;;;;18.36;83.30;100185.56;5075901;28;20481;-73
2022/06/09 02:17:44;;;;;;;1.50;1.23;;;;;;;18.36;83.35;100196.53;5075953;28;21053;-73
2022/06/09 02:20:12;;;;;;;1.70;1.17;;;;;;;18.32;83.79;100195.66;5075740;28;20552;-73
2022/06/09 02:22:39;;;;;;;2.17;1.50;;;;;;;18.32;83.74;100195.66;5076191;28;20527;-73
2022/06/09 02:25:07;;;;;;;3.00;1.10;;;;;;;18.29;83.50;100190.94;5076056;28;20531;-72
2022/06/09 02:27:33;;;;;;;2.23;1.40;;;;;;;18.29;83.59;100197.22;5076064;28;20469;-72
2022/06/09 02:30:00;;;;;;;2.20;1.70;;;;;;;18.26;83.99;100192.44;5075583;28;20982;-73
2022/06/09 02:32:27;;;;;;;1.60;1.40;;;;;;;18.21;83.26;100197.44;5075968;28;20484;-73
2022/06/09 02:34:55;;;;;;;1.63;1.13;;;;;;;18.04;83.91;100196.72;5075823;28;20558;-73
2022/06/09 02:37:21;;;;;;;1.83;1.20;;;;;;;18.04;84.03;100201.41;5075850;28;20437;-74
2022/06/09 02:39:48;;;;;;;2.60;1.40;;;;;;;18.02;84.26;100209.19;5076339;28;20465;-70
2022/06/09 02:42:14;;;;;;;2.33;1.50;;;;;;;18.00;84.32;100206.81;5075659;28;20445;-70
2022/06/09 02:44:41;;;;;;;1.53;1.13;;;;;;;17.99;84.34;100204.44;5075926;28;20468;-70
2022/06/09 02:47:08;;;;;;;1.53;1.30;;;;;;;17.93;84.86;100200.38;5075028;28;20544;-74
2022/06/09 02:49:35;;;;;;;2.70;1.77;;;;;;;17.89;84.98;100211.28;5075509;28;20464;-72
2022/06/09 02:52:03;;;;;;;1.83;1.43;;;;;;;17.82;85.51;100214.66;5075453;28;20869;-72
2022/06/09 02:54:29;;;;;;;1.43;1.10;;;;;;;17.79;85.05;100209.88;5075585;28;20579;-71
2022/06/09 02:56:56;;;;;;;1.20;1.10;;;;;;;17.80;84.60;100219.72;5075471;28;20536;-71
2022/06/09 02:59:23;;;;;;;2.97;1.30;;;;;;;17.77;84.51;100220.41;5074998;28;20930;-71
2022/06/09 03:01:49;;;;;;;1.10;0.80;;;;;;;17.70;84.84;100217.47;5075339;28;20532;-71
2022/06/09 03:04:16;;;;;;;1.60;1.10;;;;;;;17.64;84.96;100218.91;5075036;28;20442;-71
2022/06/09 03:06:43;;;;;;;2.20;1.50;;;;;;;17.60;84.81;100221.56;5075275;28;20445;-72
2022/06/09 03:09:11;;;;;;;2.40;1.10;;;;;;;17.58;85.01;100217.63;5074931;28;21022;-72
2022/06/09 03:11:38;;;;;;;1.47;0.90;;;;;;;17.61;85.17;100227.84;5075153;28;20461;-71
2022/06/09 03:14:04;;;;;;;1.50;1.20;;;;;;;17.54;86.23;100227.69;5075158;28;20844;-71
2022/06/09 03:16:31;;;;;;;1.60;1.00;;;;;;;17.54;86.72;100227.69;5075776;28;20491;-72
2022/06/09 03:18:58;;;;;;;4.00;0.97;;;;;;;17.54;86.76;100227.69;5075173;28;20474;-71
2022/06/09 03:21:24;;;;;;;1.43;1.33;;;;;;;17.46;87.44;100231.41;5074982;28;20544;-72
2022/06/09 03:23:51;;;;;;;1.90;1.20;;;;;;;17.44;87.22;100229.03;5074895;28;20524;-72
2022/06/09 03:26:19;;;;;;;1.73;1.13;;;;;;;17.37;87.26;100235.13;5074617;28;20499;-72
2022/06/09 03:28:46;;;;;;;1.60;1.30;;;;;;;17.40;86.79;100234.44;5074876;28;20447;-72
2022/06/09 03:31:12;;;;;;;2.20;1.37;;;;;;;17.37;86.99;100237.88;5074757;28;20544;-72
2022/06/09 03:33:39;;;;;;;2.67;1.60;;;;;;;17.37;87.36;100239.81;5074786;28;20812;-71
2022/06/09 03:36:06;;;;;;;2.40;1.50;;;;;;;17.32;87.26;100238.16;5074547;28;20488;-71
2022/06/09 03:38:32;;;;;;;1.47;1.20;;;;;;;17.33;87.04;100244.41;5074622;28;20643;-71
2022/06/09 03:40:59;;;;;;;1.83;1.07;;;;;;;17.27;87.20;100241.16;5074513;28;20553;-71
2022/06/09 03:43:27;;;;;;;7.00;1.73;;;;;;;17.27;87.99;100249.38;5074573;28;20885;-71
2022/06/09 03:45:54;;;;;;;1.57;1.00;;;;;;;17.25;88.10;100250.88;5074171;28;20969;-72
2022/06/09 03:48:21;;;;;;;1.63;0.90;;;;;;;17.23;86.01;100251.22;5074123;28;20947;-72
2022/06/09 03:50:47;;;;;;;3.30;0.97;;;;;;;17.20;84.71;100251.94;5074065;28;21053;-72
2022/06/09 03:53:14;;;;;;;1.70;1.50;;;;;;;17.15;84.23;100249.47;5074349;28;20524;-71
2022/06/09 03:55:41;;;;;;;1.70;1.00;;;;;;;17.06;86.73;100257.84;5074291;28;20479;-72
2022/06/09 03:58:07;;;;;;;1.93;1.00;;;;;;;17.11;86.29;100263.06;5073777;28;20441;-72
2022/06/09 04:00:36;;;;;;;1.67;1.37;;;;;;;17.14;87.00;100256.09;5073259;28;20479;-72
2022/06/09 04:03:03;;;;;;;1.53;1.40;;;;;;;17.19;88.03;100260.50;5074149;28;20445;-72
2022/06/09 04:05:30;;;;;;;1.50;1.13;;;;;;;17.20;88.49;100271.09;5073852;28;20481;-73
2022/06/09 04:07:58;;;;;;;1.00;0.80;;;;;;;17.28;88.79;100272.06;5074134;28;20449;-72
2022/06/09 04:10:27;;;;;;;8.40;1.30;;;;;;;17.34;89.09;100263.22;5073952;28;20552;-72
2022/06/09 04:12:55;;;;;;;1.97;1.10;;;;;;;17.39;88.64;100260.22;5073591;28;20935;-72
2022/06/09 04:15:22;;;;;;;2.23;1.30;;;;;;;17.39;88.08;100262.94;5073872;28;20487;-72
2022/06/09 04:17:51;;;;;;;1.77;1.27;;;;;;;17.48;87.78;100265.50;5073953;28;20491;-72
2022/06/09 04:20:21;;;;;;;3.23;1.67;;;;;;;17.55;87.63;100268.41;5073495;28;20457;-73
2022/06/09 04:22:48;;;;;;;1.80;1.40;;;;;;;17.68;86.75;100274.59;5073841;28;20520;-72
2022/06/09 04:25:14;;;;;;;1.43;1.10;;;;;;;17.79;86.09;100266.63;5073728;28;20473;-72
2022/06/09 04:27:41;;;;;;;1.63;1.07;;;;;;;17.88;86.19;100269.97;5073378;28;20951;-73
2022/06/09 04:30:09;;;;;;;1.57;1.27;;;;;;;18.03;85.21;100273.81;5073607;28;20465;-73
2022/06/09 04:32:36;;;;;;;1.87;1.53;;;;;;;18.15;84.63;100277.22;5073635;28;20528;-73
2022/06/09 04:35:05;;;;;;;1.77;0.93;;;;;;;18.27;84.28;100279.03;5073582;28;20488;-73
2022/06/09 04:40:34;;;;;;;2.07;1.10;;;;;;;18.60;81.49;100274.97;5031277;28;20464;-72
2022/06/09 04:43:02;;;;;;;1.97;1.20;;;;;;;18.63;81.24;100271.50;5031285;28;20806;-72
2022/06/09 04:45:28;;;;;;;2.30;1.20;;;;;;;18.77;80.76;100271.81;5050662;28;20540;-71
2022/06/09 04:47:55;;;;;;;1.37;0.97;;;;;;;18.89;79.15;100276.31;5073451;28;20524;-72
2022/06/09 04:50:24;;;;;;;2.37;1.43;;;;;;;18.98;79.01;100270.59;5072918;28;20480;-71
2022/06/09 04:52:51;;;;;;;1.57;1.10;;;;;;;19.09;79.06;100285.31;5073497;28;20496;-71
2022/06/09 04:55:18;;;;;;;2.27;0.90;;;;;;;19.18;78.44;100287.81;5072975;28;20477;-71
2022/06/09 04:57:44;;;;;;;3.57;0.90;;;;;;;19.16;78.40;100297.19;5073338;28;20528;-69
2022/06/09 05:00:14;;;;;;;1.20;0.97;;;;;;;19.03;78.78;100289.50;5072937;28;20473;-71
2022/06/09 05:02:40;;;;;;;1.23;0.83;;;;;;;19.10;78.63;100295.13;5072979;28;20520;-71
2022/06/09 05:05:15;;;;;;;0.93;0.70;;;;;;;19.22;78.16;100300.44;5073219;28;20524;-71
2022/06/09 05:07:43;;;;;;;1.27;0.90;;;;;;;19.27;78.33;100305.63;5073134;28;20418;-70
2022/06/09 05:10:10;;;;;;;1.97;0.70;;;;;;;19.28;78.03;100301.72;5072769;28;20468;-70
2022/06/09 05:12:37;;;;;;;1.93;0.90;;;;;;;19.27;78.12;100310.31;5073184;28;20440;-70
2022/06/09 05:15:05;;;;;;;1.20;0.80;;;;;;;19.25;77.52;100307.94;5073219;28;20465;-70
2022/06/09 05:17:31;;;;;;;6.23;1.20;;;;;;;19.18;78.33;100307.03;5072860;28;20510;-71
2022/06/09 05:19:58;;;;;;;2.30;1.30;;;;;;;19.11;79.36;100311.22;5072937;28;20552;-71
2022/06/09 05:22:25;;;;;;;0.93;0.63;;;;;;;19.10;78.82;100320.63;5072719;28;20444;-70
2022/06/09 05:24:57;;;;;;;2.20;0.80;;;;;;;19.16;78.81;100326.59;5073077;28;20488;-70
2022/06/09 05:27:24;;;;;;;1.00;0.80;;;;;;;19.18;77.99;100332.53;5073100;28;20430;-73
2022/06/09 05:29:51;;;;;;;1.10;0.73;;;;;;;19.19;78.49;100333.34;5072912;28;20548;-72
2022/06/09 05:32:17;;;;;;;0.80;0.50;;;;;;;19.21;77.87;100342.78;5072929;28;20448;-72
2022/06/09 05:34:44;;;;;;;1.10;0.80;;;;;;;19.23;77.95;100340.47;5072965;28;20469;-72
2022/06/09 05:37:11;;;;;;;2.30;0.80;;;;;;;19.17;78.40;100350.19;5072765;28;20491;-72
2022/06/09 05:45:08;;;;;;;1.03;0.73;;;;;;;19.15;78.46;100355.22;5072697;28;20405;-72
2022/06/09 05:47:34;;;;;;;1.77;0.90;;;;;;;19.11;79.06;100359.84;5072524;28;20961;-72
2022/06/09 05:50:01;;;;;;;1.57;1.30;;;;;;;19.08;78.12;100363.31;5072428;28;21002;-72
2022/06/09 05:52:30;;;;;;;1.00;0.70;;;;;;;19.08;78.40;100368.81;5072784;28;20442;-71
2022/06/09 05:54:58;;;;;;;2.10;0.90;;;;;;;18.97;78.91;100368.63;5072796;28;20543;-72
2022/06/09 05:57:27;;;;;;;0.90;0.80;;;;;;;18.91;79.75;100370.09;5072650;28;20449;-72
2022/06/09 05:59:54;;;;;;;4.37;0.80;;;;;;;19.03;79.70;100372.66;5072415;28;20473;-72
2022/06/09 06:02:22;;;;;;;1.50;0.80;;;;;;;19.07;79.55;100373.50;5072705;28;20441;-72
2022/06/09 06:04:50;;;;;;;1.60;1.07;;;;;;;19.12;79.20;100369.69;5072686;28;20456;-72
2022/06/09 06:07:17;;;;;;;0.97;0.60;;;;;;;19.09;78.79;100373.16;5072602;28;20433;-72
2022/06/09 06:09:44;;;;;;;0.80;0.63;;;;;;;19.16;78.97;100381.53;5072535;28;20455;-71
2022/06/09 06:12:11;;;;;;;1.20;0.80;;;;;;;19.22;79.13;100384.78;5072638;28;20437;-71
2022/06/09 06:14:40;;;;;;;1.00;0.73;;;;;;;19.12;79.13;100383.41;5072611;28;20452;-71
2022/06/09 06:17:07;;;;;;;1.07;0.80;;;;;;;19.05;79.61;100391.53;5072511;28;20486;-71
2022/06/09 06:19:33;;;;;;;3.90;0.97;;;;;;;18.98;79.56;100396.88;5072414;28;20441;-71
2022/06/09 06:22:00;;;;;;;1.20;0.60;;;;;;;18.83;80.41;100395.81;5072754;28;20960;-71
2022/06/09 06:24:27;;;;;;;1.90;1.00;;;;;;;18.87;80.62;100397.47;5076116;28;20448;-71
2022/06/09 06:26:54;;;;;;;1.10;0.90;;;;;;;18.90;80.22;100395.91;5076064;28;20818;-72
2022/06/09 06:29:23;;;;;;;2.17;0.80;;;;;;;18.88;80.60;100401.00;5075907;28;20528;-71
2022/06/09 06:31:51;;;;;;;1.27;0.83;;;;;;;18.80;80.82;100399.25;5075977;28;20445;-71
2022/06/09 06:34:18;;;;;;;1.00;0.80;;;;;;;18.82;81.11;100405.97;5075974;28;20452;-71
2022/06/09 06:36:45;;;;;;;1.63;1.20;;;;;;;18.92;80.88;100401.06;5075808;28;20483;-72
2022/06/09 06:39:12;;;;;;;2.70;0.97;;;;;;;18.99;81.21;100407.50;5075867;28;20536;-71
2022/06/09 06:41:40;;;;;;;2.03;0.80;;;;;;;19.09;80.75;100409.66;5075712;28;20457;-71
2022/06/09 06:44:07;;;;;;;1.63;1.00;;;;;;;19.17;80.41;100413.34;5075780;28;20425;-70
2022/06/09 06:46:34;;;;;;;1.90;1.33;;;;;;;19.12;80.42;100411.69;5075715;28;20524;-72
2022/06/09 06:49:02;;;;;;;2.80;0.90;;;;;;;19.20;79.98;100414.53;5075632;28;20532;-74
2022/06/09 06:51:29;;;;;;;1.70;0.90;;;;;;;19.23;80.25;100425.59;5075588;28;20564;-72
2022/06/09 06:53:56;;;;;;;1.70;1.00;;;;;;;19.28;80.07;100430.78;5075568;28;20441;-70
2022/06/09 06:56:22;;;;;;;1.37;0.83;;;;;;;19.33;79.84;100433.25;5075384;28;20481;-70
2022/06/09 06:58:49;;;;;;;1.30;1.20;;;;;;;19.30;79.83;100436.75;5075171;28;20447;-74
2022/06/09 07:01:16;;;;;;;1.60;0.90;;;;;;;19.14;80.23;100433.28;5074990;28;20504;-73
2022/06/09 07:03:42;;;;;;;1.40;1.00;;;;;;;19.01;81.38;100440.88;5075542;28;20445;-72
2022/06/09 07:06:11;;;;;;;1.07;0.83;;;;;;;19.02;82.02;100447.16;5075368;28;20444;-72
2022/06/09 07:08:37;;;;;;;2.20;1.13;;;;;;;19.00;81.46;100443.97;5075573;28;20536;-73
2022/06/09 07:11:05;;;;;;;1.30;0.90;;;;;;;18.87;82.63;100444.13;5075308;28;20466;-74
2022/06/09 07:13:31;;;;;;;1.80;1.20;;;;;;;18.90;82.98;100446.16;5075157;28;20545;-73
2022/06/09 07:15:58;;;;;;;1.30;0.90;;;;;;;18.87;82.71;100452.34;5075073;28;20495;-73
2022/06/09 07:18:25;;;;;;;3.27;1.10;;;;;;;18.87;82.30;100451.56;5075165;28;20480;-72
2022/06/09 07:20:51;;;;;;;2.03;1.20;;;;;;;18.85;83.09;100451.91;5074795;28;20541;-72
2022/06/09 07:23:19;;;;;;;1.80;1.00;;;;;;;18.90;82.86;100454.38;5075025;28;20433;-73
2022/06/09 07:25:46;;;;;;;2.80;1.53;;;;;;;18.96;83.15;100459.59;5074971;28;20443;-73
2022/06/09 07:28:13;;;;;;;4.10;1.20;;;;;;;18.87;83.95;100459.78;5074909;28;20475;-73
2022/06/09 07:30:40;;;;;;;1.83;1.27;;;;;;;18.85;83.79;100460.13;5074832;28;20472;-73
2022/06/09 07:33:07;;;;;;;2.27;1.10;;;;;;;18.79;84.25;100464.31;5074394;28;20941;-73
2022/06/09 07:35:37;;;;;;;1.10;0.97;;;;;;;18.79;84.12;100467.06;5074780;28;20527;-73
2022/06/09 07:38:07;;;;;;;3.00;1.23;;;;;;;18.85;83.94;100470.31;5074827;28;20437;-72
2022/06/09 07:40:36;;;;;;;3.40;1.30;;;;;;;18.83;84.14;100478.94;5074640;28;20461;-72
2022/06/09 07:43:03;;;;;;;1.30;0.93;;;;;;;18.81;84.13;100478.47;5074659;28;20441;-73
2022/06/09 07:45:31;;;;;;;7.20;1.90;;;;;;;18.74;84.06;100481.09;5074638;28;20532;-73
2022/06/09 07:47:58;;;;;;;2.17;0.93;;;;;;;18.68;84.48;100490.69;5074290;28;20977;-73
2022/06/09 07:50:24;;;;;;;1.17;0.90;;;;;;;18.67;84.91;100494.59;5074444;28;20546;-73
2022/06/09 07:52:51;;;;;;;1.23;0.90;;;;;;;18.66;85.75;100501.25;5074484;28;20517;-73
2022/06/09 07:55:18;;;;;;;1.10;0.90;;;;;;;18.66;85.33;100501.25;5074487;28;20532;-73
2022/06/09 07:57:46;;;;;;;2.23;1.30;;;;;;;18.70;85.83;100501.38;5074396;28;20527;-73
2022/06/09 08:00:14;;;;;;;1.27;0.90;;;;;;;18.69;86.38;100508.81;5097818;22;20487;-67
2022/06/09 08:02:41;;;;;;;1.43;0.90;;;;;;;18.74;86.43;100514.00;5074336;28;20430;-69
2022/06/09 08:05:09;;;;;;;3.13;0.80;;;;;;;18.67;87.09;100519.28;5074223;28;20446;-68
2022/06/09 08:07:36;;;;;;;1.20;0.90;;;;;;;18.53;88.48;100518.97;5074251;28;20447;-70
2022/06/09 08:10:04;;;;;;;1.30;0.80;;;;;;;18.36;91.33;100520.13;5073802;28;20528;-69
2022/06/09 08:12:30;;;;;;;1.50;1.10;;;;;;;18.26;93.51;100521.47;5074044;28;20532;-68
2022/06/09 08:14:58;;;;;;;3.40;1.77;;;;;;;18.23;95.06;100519.44;5073755;28;20467;-68
2022/06/09 08:17:25;;;;;;;1.00;0.80;;;;;;;18.22;95.08;100523.34;5073881;28;20485;-69
2022/06/09 08:19:53;;;;;;;2.10;1.37;;;;;;;18.20;94.36;100517.41;5074081;28;20445;-69
2022/06/09 08:22:20;;;;;;;1.10;0.87;;;;;;;18.11;95.14;100519.53;5073903;28;20458;-68
2022/06/09 08:24:47;;;;;;;4.80;1.23;;;;;;;18.14;97.05;100518.81;5073846;28;20484;-68
2022/06/09 08:27:14;;;;;;;2.73;1.30;;;;;;;18.15;98.56;100523.19;5073903;28;20816;-68
2022/06/09 08:29:41;;;;;;;2.60;1.53;;;;;;;18.18;99.74;100527.94;5073767;28;20988;-68
2022/06/09 08:32:09;;;;;;;4.13;1.80;;;;;;;18.10;97.75;100529.69;5073799;28;20913;-68
2022/06/09 08:34:36;;;;;;;1.77;1.40;;;;;;;17.88;97.39;100528.38;5073619;28;20476;-68
2022/06/09 08:37:04;;;;;;;9.33;1.77;;;;;;;17.83;97.19;100534.09;5073460;28;20819;-69
2022/06/09 08:39:31;;;;;;;1.53;1.30;;;;;;;17.85;97.88;100533.75;5073811;28;20456;-69
2022/06/09 08:42:20;;;;;;;1.87;1.40;;;;;;;17.96;97.38;100534.03;5073569;28;21014;-68
2022/06/09 08:44:52;;;;;;;2.47;1.47;;;;;;;18.07;94.91;100537.84;5072978;28;20957;-67
2022/06/09 08:47:26;;;;;;;1.57;1.20;;;;;;;18.17;94.23;100544.75;5073721;28;20512;-69
2022/06/09 08:50:00;;;;;;;1.70;1.30;;;;;;;18.25;93.65;100541.03;5073308;28;20800;-68
2022/06/09 08:52:40;;;;;;;2.37;1.10;;;;;;;18.33;94.14;100540.84;5073583;28;20508;-69
2022/06/09 08:55:18;;;;;;;2.10;1.60;;;;;;;18.40;93.60;100554.72;5073464;28;20433;-71
2022/06/09 08:57:47;;;;;;;1.77;1.10;;;;;;;18.47;92.96;100554.13;5073282;28;20468;-69
2022/06/09 09:00:17;;;;;;;1.87;1.57;;;;;;;18.57;92.93;100559.06;5072881;28;20528;-69
2022/06/09 09:02:50;;;;;;;1.83;1.37;;;;;;;18.70;92.42;100561.72;5073393;28;20525;-69
2022/06/09 09:05:20;;;;;;;1.10;0.90;;;;;;;18.83;92.06;100572.25;5073443;28;20430;-68
2022/06/09 09:07:50;;;;;;;1.20;1.10;;;;;;;18.96;91.83;100564.69;5073293;28;20524;-68
2022/06/09 09:10:24;;;;;;;6.03;1.77;;;;;;;19.01;91.66;100577.34;5073311;28;20830;-68
2022/06/09 09:13:03;;;;;;;1.97;1.10;;;;;;;19.08;90.14;100574.75;5073828;28;20460;-68
2022/06/09 09:15:34;;;;;;;4.67;1.13;;;;;;;19.20;90.18;100580.09;5073267;28;20432;-69
2022/06/09 09:18:15;;;;;;;1.10;0.90;;;;;;;19.27;88.08;100585.75;5073166;28;20476;-69
2022/06/09 09:20:53;;;;;;;2.03;1.60;;;;;;;19.30;87.06;100578.75;5072944;28;20970;-68
2022/06/09 09:23:26;;;;;;;2.50;1.73;;;;;;;19.37;85.86;100584.41;5073284;28;20422;-69
2022/06/09 09:25:57;;;;;;;2.53;1.90;;;;;;;19.41;86.57;100586.06;5073282;28;20450;-68
2022/06/09 09:28:30;;;;;;;3.27;1.53;;;;;;;19.41;86.16;100580.56;5073200;28;20421;-69
2022/06/09 09:31:03;;;;;;;1.77;1.30;;;;;;;19.46;84.37;100581.44;5072877;28;20828;-68
2022/06/09 09:33:32;;;;;;;1.47;1.30;;;;;;;19.45;85.88;100579.84;5073123;28;20483;-68
2022/06/09 09:36:02;;;;;;;2.13;1.30;;;;;;;19.67;86.12;100587.41;5073045;28;20448;-69
2022/06/09 09:38:36;;;;;;;4.33;1.60;;;;;;;19.92;85.48;100582.38;5072752;28;20860;-68
2022/06/09 09:41:03;;;;;;;2.50;1.77;;;;;;;20.19;83.62;100583.28;5073534;28;20488;-69
2022/06/09 09:43:37;;;;;;;1.93;1.53;;;;;;;20.44;82.40;100586.44;5073211;28;20525;-68
2022/06/09 09:46:04;;;;;;;2.90;1.90;;;;;;;20.59;79.46;100593.00;5073030;28;20430;-68
2022/06/09 09:48:40;;;;;;;1.73;1.00;;;;;;;20.71;78.77;100595.53;5072642;28;20439;-67
2022/06/09 09:51:12;;;;;;;2.30;1.80;;;;;;;20.83;76.42;100597.31;5073581;28;20500;-68
2022/06/09 09:53:41;;;;;;;2.40;1.43;;;;;;;20.76;75.73;100592.50;5072740;28;20911;-68
2022/06/09 09:56:29;;;;;;;1.97;1.30;;;;;;;20.65;76.02;100600.56;5072941;28;20437;-69
2022/06/09 09:58:58;;;;;;;2.37;1.90;;;;;;;20.72;75.59;100594.41;5076453;28;20844;-67
2022/06/09 10:01:34;;;;;;;2.13;1.57;;;;;;;20.56;74.85;100604.75;5076445;28;20477;-69
2022/06/09 10:09:39;;;;;;;2.10;1.50;;;;;;;20.44;74.23;100616.69;5076499;28;20409;-68
2022/06/09 10:12:10;;;;;;;1.90;1.47;;;;;;;20.54;75.13;100624.41;5076336;28;20461;-69
2022/06/09 10:14:52;;;;;;;3.43;1.60;;;;;;;20.64;73.87;100621.00;5080489;28;20516;-68
2022/06/09 10:17:29;;;;;;;3.40;1.40;;;;;;;20.80;72.70;100617.31;5077933;28;20552;-68
2022/06/09 10:20:06;;;;;;;1.93;1.57;;;;;;;20.91;72.81;100627.34;5076709;28;20474;-68
2022/06/09 10:22:35;;;;;;;2.20;1.53;;;;;;;21.10;73.90;100628.38;5076080;28;20425;-67
2022/06/09 10:25:14;;;;;;;2.73;2.10;;;;;;;21.13;72.33;100631.19;5076201;28;20433;-68
2022/06/09 10:27:42;;;;;;;1.93;1.33;;;;;;;21.19;72.46;100639.94;5076447;28;20417;-68
2022/06/09 10:30:13;;;;;;;2.37;1.70;;;;;;;21.23;71.43;100640.00;5076079;28;20922;-68
2022/06/09 10:32:48;;;;;;;2.00;1.47;;;;;;;21.33;71.50;100645.66;5076043;28;20422;-68
2022/06/09 10:35:24;;;;;;;2.57;1.33;;;;;;;21.48;70.08;100643.13;5076031;28;20433;-67
2022/06/09 10:37:56;;;;;;;2.43;1.63;;;;;;;21.60;69.89;100637.34;5075764;28;21013;-68
2022/06/09 10:40:29;;;;;;;2.17;1.47;;;;;;;21.42;71.78;100640.69;5075857;28;20465;-67
2022/06/09 10:43:00;;;;;;;2.53;1.83;;;;;;;21.51;71.13;100650.63;5075795;28;20459;-68
2022/06/09 10:45:35;;;;;;;1.97;1.30;;;;;;;21.51;70.22;100651.44;5075607;28;20908;-68
2022/06/09 10:56:53;;;;;;;2.07;1.50;;;;;;;21.35;70.65;100657.13;5075629;28;20405;-68
2022/06/09 10:59:27;;;;;;;1.63;1.23;;;;;;;21.28;71.11;100651.47;5075702;28;20520;-69
2022/06/09 11:01:54;;;;;;;2.10;1.40;;;;;;;21.29;72.21;100657.78;5075132;28;20484;-69
2022/06/09 11:04:22;;;;;;;5.90;1.57;;;;;;;21.27;72.39;100649.09;5075272;28;21018;-68
2022/06/09 11:07:08;;;;;;;3.03;1.57;;;;;;;21.29;71.43;100655.81;5075555;28;20532;-68
2022/06/09 11:09:46;;;;;;;1.80;1.40;;;;;;;21.47;70.53;100649.78;5074917;28;20514;-69
2022/06/09 11:12:22;;;;;;;1.97;1.60;;;;;;;21.62;70.38;100659.84;5075069;28;20986;-68
2022/06/09 11:15:03;;;;;;;2.30;1.50;;;;;;;21.73;69.13;100660.75;5075446;28;20440;-69
2022/06/09 11:17:57;;;;;;;2.87;1.53;;;;;;;21.83;69.12;100665.63;5074984;28;21057;-69
2022/06/09 11:20:32;;;;;;;3.20;1.70;;;;;;;21.90;67.52;100665.69;5072403;28;21065;-67
2022/06/09 11:23:11;;;;;;;2.60;1.67;;;;;;;22.02;67.32;100666.63;5075247;28;20426;-70
2022/06/09 11:25:51;;;;;;;1.83;1.40;;;;;;;22.16;67.06;100664.06;5074799;28;20458;-70
2022/06/09 11:28:31;;;;;;;2.17;1.50;;;;;;;22.23;68.52;100661.38;5075227;28;20422;-68
2022/06/09 11:31:20;;;;;;;2.27;1.50;;;;;;;22.50;67.99;100658.50;5074992;28;20822;-69
2022/06/09 11:34:00;;;;;;;2.93;1.80;;;;;;;22.67;65.40;100661.41;5074998;28;20436;-69
2022/06/09 11:36:33;;;;;;;1.80;1.17;;;;;;;22.84;62.04;100651.69;5075032;28;20520;-68
2022/06/09 11:39:23;;;;;;;1.43;1.13;;;;;;;22.90;61.89;100661.22;5074533;28;20542;-68
2022/06/09 11:42:01;;;;;;;1.63;1.10;;;;;;;22.96;62.10;100650.59;5074743;28;20465;-71
2022/06/09 11:44:32;;;;;;;2.63;1.97;;;;;;;23.02;59.85;100659.31;5074914;28;20426;-69
2022/06/09 11:47:04;;;;;;;4.27;1.53;;;;;;;23.06;60.88;100666.47;5074829;28;20436;-72
2022/06/09 11:49:36;;;;;;;2.30;1.43;;;;;;;23.30;60.34;100662.28;5074794;28;20432;-66
2022/06/09 11:52:06;;;;;;;1.70;1.20;;;;;;;23.41;58.79;100665.09;5074242;28;20846;-69
2022/06/09 11:54:43;;;;;;;3.83;1.27;;;;;;;23.42;60.33;100661.19;5074578;28;20468;-68
2022/06/09 11:57:43;;;;;;;3.50;1.53;;;;;;;23.56;60.48;100668.75;5074430;28;20436;-68
2022/06/09 12:00:38;;;;;;;2.97;1.40;;;;;;;23.41;59.50;100665.09;5074171;28;20509;-69